createdAt,value
2023-04-25T00:00:45.250Z,87.75
2023-04-25T00:01:47.703Z,88.78
2023-04-25T00:02:49.539Z,88.05
2023-04-25T00:03:52.591Z,87.66
2023-04-25T00:04:55.734Z,86.98
2023-04-25T00:05:58.956Z,85.78
2023-04-25T00:07:02.551Z,86.91
2023-04-25T00:08:05.804Z,86.19
2023-04-25T00:09:09.988Z,86.93
2023-04-25T00:10:12.903Z,87.92
2023-04-25T00:11:14.420Z,87.76
2023-04-25T00:12:17.973Z,87.41
2023-04-25T00:13:20.311Z,87.30
2023-04-25T00:14:23.843Z,87.14
2023-04-25T00:15:25.352Z,87.74
2023-04-25T00:16:28.050Z,87.65
2023-04-25T00:17:29.894Z,88.02
2023-04-25T00:18:34.260Z,87.45
2023-04-25T00:19:36.069Z,86.62
2023-04-25T00:20:38.607Z,86.44
2023-04-25T00:21:41.429Z,87.14
2023-04-25T00:22:45.356Z,89.65
2023-04-25T00:23:47.318Z,89.94
2023-04-25T00:24:49.869Z,91.43
2023-04-25T00:25:51.901Z,91.18
2023-04-25T00:26:54.427Z,90.01
2023-04-25T00:27:56.002Z,88.84
2023-04-25T00:28:58.432Z,87.49
2023-04-25T00:29:59.924Z,89.55
2023-04-25T00:31:02.404Z,90.22
2023-04-25T00:32:04.258Z,92.68
2023-04-25T00:33:06.789Z,93.64
2023-04-25T00:34:09.140Z,94.36
2023-04-25T00:35:11.775Z,95.33
2023-04-25T00:36:13.589Z,95.39
2023-04-25T00:37:16.166Z,95.74
2023-04-25T00:38:19.176Z,96.43
2023-04-25T00:39:21.628Z,96.93
2023-04-25T00:40:23.268Z,96.73
2023-04-25T00:41:27.785Z,96.17
2023-04-25T00:42:30.805Z,95.80
2023-04-25T00:43:34.829Z,94.67
2023-04-25T00:44:36.620Z,95.33
2023-04-25T00:45:41.055Z,96.16
2023-04-25T00:46:43.375Z,96.28
2023-04-25T00:47:46.326Z,96.22
2023-04-25T00:48:47.924Z,94.82
2023-04-25T00:49:50.412Z,93.74
2023-04-25T00:50:53.779Z,92.62
2023-04-25T00:51:57.008Z,91.74
2023-04-25T00:52:58.581Z,90.88
2023-04-25T00:54:03.564Z,89.93
2023-04-25T00:55:06.192Z,89.00
2023-04-25T00:56:08.756Z,89.00
2023-04-25T00:57:11.617Z,87.81
2023-04-25T00:58:14.140Z,86.79
2023-04-25T00:59:16.263Z,87.49
2023-04-25T01:00:22.498Z,87.05
2023-04-25T01:01:24.141Z,89.02
2023-04-25T01:02:28.042Z,91.91
2023-04-25T01:03:32.032Z,92.84
2023-04-25T01:04:34.805Z,92.15
2023-04-25T01:05:36.504Z,91.13
2023-04-25T01:06:39.303Z,91.57
2023-04-25T01:07:41.642Z,92.07
2023-04-25T01:08:44.507Z,93.95
2023-04-25T01:09:47.547Z,93.34
2023-04-25T01:10:49.982Z,92.00
2023-04-25T01:11:51.719Z,91.37
2023-04-25T01:12:54.245Z,90.64
2023-04-25T01:13:55.732Z,89.67
2023-04-25T01:14:58.275Z,88.65
2023-04-25T01:16:00.370Z,88.09
2023-04-25T01:17:03.711Z,88.76
2023-04-25T01:18:06.487Z,88.90
2023-04-25T01:19:12.920Z,87.96
2023-04-25T01:20:15.272Z,87.26
2023-04-25T01:21:19.246Z,86.88
2023-04-25T01:22:21.753Z,88.02
2023-04-25T01:23:24.826Z,87.21
2023-04-25T01:24:26.924Z,86.41
2023-04-25T01:25:29.924Z,86.19
2023-04-25T01:26:31.830Z,86.47
2023-04-25T01:27:34.682Z,86.47
2023-04-25T01:28:36.258Z,86.16
2023-04-25T01:29:39.053Z,85.51
2023-04-25T01:30:41.589Z,85.65
2023-04-25T01:31:45.045Z,85.31
2023-04-25T01:32:47.491Z,85.28
2023-04-25T01:33:50.718Z,85.51
2023-04-25T01:34:52.385Z,84.93
2023-04-25T01:35:54.862Z,84.87
2023-04-25T01:36:59.972Z,86.14
2023-04-25T01:38:02.722Z,86.43
2023-04-25T01:39:04.559Z,87.39
2023-04-25T01:40:09.461Z,90.42
2023-04-25T01:41:11.132Z,92.81
2023-04-25T01:42:14.894Z,93.62
2023-04-25T01:43:16.455Z,94.90
2023-04-25T01:44:18.949Z,96.53
2023-04-25T01:45:20.859Z,98.41
2023-04-25T01:46:23.768Z,98.43
2023-04-25T01:47:25.529Z,99.44
2023-04-25T01:48:28.209Z,99.29
2023-04-25T01:49:29.723Z,99.23
2023-04-25T01:50:32.309Z,100.00
2023-04-25T01:51:34.425Z,100.00
2023-04-25T01:52:38.345Z,100.00
2023-04-25T01:53:40.683Z,100.00
2023-04-25T01:54:45.665Z,100.00
2023-04-25T01:55:47.194Z,100.00
2023-04-25T01:56:52.555Z,100.00
2023-04-25T01:57:54.098Z,100.00
2023-04-25T01:58:56.511Z,100.00
2023-04-25T02:00:00.940Z,100.00
2023-04-25T02:01:03.768Z,100.00
2023-04-25T02:02:05.617Z,100.00
2023-04-25T02:03:08.854Z,100.00
2023-04-25T02:04:10.626Z,100.00
2023-04-25T02:05:13.168Z,100.00
2023-04-25T02:06:14.704Z,100.00
2023-04-25T02:07:17.584Z,100.00
2023-04-25T02:08:20.376Z,100.00
2023-04-25T02:09:22.846Z,100.00
2023-04-25T02:10:24.347Z,100.00
2023-04-25T02:11:26.773Z,100.00
2023-04-25T02:12:28.412Z,100.00
2023-04-25T02:13:30.975Z,100.00
2023-04-25T02:14:32.423Z,100.00
2023-04-25T02:15:34.930Z,100.00
2023-04-25T02:16:36.914Z,100.00
2023-04-25T02:17:40.138Z,100.00
2023-04-25T02:18:41.689Z,100.00
2023-04-25T02:19:44.100Z,100.00
2023-04-25T02:20:46.361Z,100.00
2023-04-25T02:21:48.789Z,100.00
2023-04-25T02:22:50.429Z,100.00
2023-04-25T02:23:54.831Z,100.00
2023-04-25T02:24:56.891Z,100.00
2023-04-25T02:25:59.772Z,100.00
2023-04-25T02:27:01.366Z,100.00
2023-04-25T02:28:03.999Z,100.00
2023-04-25T02:29:05.804Z,100.00
2023-04-25T02:30:09.341Z,100.00
2023-04-25T02:31:11.774Z,100.00
2023-04-25T02:32:13.272Z,100.00
2023-04-25T02:33:17.926Z,100.00
2023-04-25T02:34:19.423Z,100.00
2023-04-25T02:35:21.958Z,100.00
2023-04-25T02:36:23.447Z,100.00
2023-04-25T02:37:26.233Z,100.00
2023-04-25T02:38:28.652Z,100.00
2023-04-25T02:39:31.483Z,99.75
2023-04-25T02:40:33.921Z,98.05
2023-04-25T02:41:35.555Z,97.42
2023-04-25T02:42:38.064Z,98.08
2023-04-25T02:43:39.514Z,99.37
2023-04-25T02:44:41.925Z,98.68
2023-04-25T02:45:43.585Z,97.96
2023-04-25T02:46:46.067Z,98.42
2023-04-25T02:47:47.623Z,97.30
2023-04-25T02:48:50.038Z,97.78
2023-04-25T02:49:51.613Z,97.29
2023-04-25T02:50:54.028Z,95.88
2023-04-25T02:51:55.510Z,95.44
2023-04-25T02:52:58.088Z,94.71
2023-04-25T02:53:59.706Z,94.14
2023-04-25T02:55:03.522Z,93.92
2023-04-25T02:56:05.772Z,93.69
2023-04-25T02:57:08.400Z,93.52
2023-04-25T02:58:09.890Z,92.65
2023-04-25T02:59:12.357Z,91.51
2023-04-25T03:00:15.264Z,91.21
2023-04-25T03:01:17.809Z,90.48
2023-04-25T03:02:19.472Z,90.78
2023-04-25T03:03:23.035Z,90.92
2023-04-25T03:04:24.933Z,90.69
2023-04-25T03:05:27.492Z,90.61
2023-04-25T03:06:28.971Z,90.82
2023-04-25T03:07:31.428Z,92.19
2023-04-25T03:08:33.676Z,92.96
2023-04-25T03:09:36.373Z,94.13
2023-04-25T03:10:39.474Z,94.34
2023-04-25T03:11:41.903Z,93.36
2023-04-25T03:12:43.392Z,91.89
2023-04-25T03:13:45.854Z,92.29
2023-04-25T03:14:47.355Z,93.27
2023-04-25T03:15:49.836Z,93.52
2023-04-25T03:16:51.393Z,94.54
2023-04-25T03:17:53.963Z,95.56
2023-04-25T03:18:55.534Z,96.14
2023-04-25T03:19:59.768Z,95.81
2023-04-25T03:21:01.295Z,95.17
2023-04-25T03:22:03.774Z,94.51
2023-04-25T03:23:05.431Z,94.78
2023-04-25T03:24:08.058Z,94.28
2023-04-25T03:25:09.528Z,94.93
2023-04-25T03:26:13.348Z,94.60
2023-04-25T03:27:14.855Z,93.67
2023-04-25T03:28:17.349Z,94.14
2023-04-25T03:29:18.928Z,93.24
2023-04-25T03:30:21.361Z,92.44
2023-04-25T03:31:23.362Z,92.60
2023-04-25T03:32:26.984Z,94.67
2023-04-25T03:33:28.483Z,96.18
2023-04-25T03:34:31.025Z,97.34
2023-04-25T03:35:32.588Z,97.07
2023-04-25T03:36:35.008Z,95.53
2023-04-25T03:37:36.525Z,93.90
2023-04-25T03:38:38.944Z,92.74
2023-04-25T03:39:40.464Z,93.68
2023-04-25T03:40:42.929Z,94.46
2023-04-25T03:41:45.909Z,95.82
2023-04-25T03:42:48.384Z,95.28
2023-04-25T03:43:50.138Z,95.74
2023-04-25T03:44:53.758Z,94.58
2023-04-25T03:45:56.094Z,94.45
2023-04-25T03:46:58.639Z,94.86
2023-04-25T03:48:00.212Z,96.02
2023-04-25T03:49:03.007Z,95.45
2023-04-25T03:50:05.061Z,94.57
2023-04-25T03:51:07.616Z,94.27
2023-04-25T03:52:09.169Z,94.03
2023-04-25T03:53:11.938Z,92.56
2023-04-25T03:54:13.456Z,93.61
2023-04-25T03:55:15.950Z,94.86
2023-04-25T03:56:17.431Z,94.48
2023-04-25T03:57:21.276Z,95.88
2023-04-25T03:58:24.119Z,94.63
2023-04-25T03:59:27.051Z,94.56
2023-04-25T04:00:28.594Z,95.85
2023-04-25T04:01:31.002Z,96.93
2023-04-25T04:02:34.163Z,97.22
2023-04-25T04:03:36.317Z,96.95
2023-04-25T04:04:39.058Z,96.88
2023-04-25T04:05:41.743Z,96.63
2023-04-25T04:06:44.256Z,95.55
2023-04-25T04:07:45.952Z,94.89
2023-04-25T04:08:48.446Z,94.30
2023-04-25T04:09:49.944Z,94.26
2023-04-25T04:10:52.377Z,94.27
2023-04-25T04:11:53.894Z,95.26
2023-04-25T04:12:57.812Z,94.84
2023-04-25T04:13:59.260Z,94.43
2023-04-25T04:15:01.718Z,93.89
2023-04-25T04:16:05.298Z,93.59
2023-04-25T04:17:07.926Z,93.73
2023-04-25T04:18:09.470Z,92.79
2023-04-25T04:19:11.998Z,91.99
2023-04-25T04:20:13.566Z,91.05
2023-04-25T04:21:16.230Z,91.44
2023-04-25T04:22:17.824Z,91.56
2023-04-25T04:23:21.425Z,90.97
2023-04-25T04:24:23.106Z,90.90
2023-04-25T04:25:25.884Z,90.86
2023-04-25T04:26:27.680Z,90.21
2023-04-25T04:27:30.310Z,89.82
2023-04-25T04:28:33.178Z,89.23
2023-04-25T04:29:35.999Z,89.22
2023-04-25T04:30:38.548Z,89.06
2023-04-25T04:31:41.506Z,89.50
2023-04-25T04:32:43.128Z,91.41
2023-04-25T04:33:45.774Z,91.39
2023-04-25T04:34:48.420Z,90.21
2023-04-25T04:35:53.323Z,89.92
2023-04-25T04:36:54.912Z,90.72
2023-04-25T04:37:57.435Z,90.79
2023-04-25T04:38:58.914Z,90.28
2023-04-25T04:40:02.252Z,89.63
2023-04-25T04:41:04.259Z,88.83
2023-04-25T04:42:06.920Z,88.23
2023-04-25T04:43:10.116Z,87.08
2023-04-25T04:44:15.095Z,86.11
2023-04-25T04:45:17.217Z,85.41
2023-04-25T04:46:19.785Z,85.54
2023-04-25T04:47:21.357Z,84.73
2023-04-25T04:48:23.898Z,84.53
2023-04-25T04:49:25.457Z,84.44
2023-04-25T04:50:28.587Z,84.46
2023-04-25T04:51:31.101Z,84.37
2023-04-25T04:52:33.637Z,84.13
2023-04-25T04:53:35.463Z,83.30
2023-04-25T04:54:38.180Z,82.06
2023-04-25T04:55:39.891Z,82.49
2023-04-25T04:56:42.849Z,81.63
2023-04-25T04:57:44.410Z,82.12
2023-04-25T04:58:46.956Z,81.90
2023-04-25T04:59:51.004Z,82.34
2023-04-25T05:00:53.500Z,81.60
2023-04-25T05:01:55.224Z,82.08
2023-04-25T05:02:58.036Z,83.33
2023-04-25T05:04:02.012Z,82.67
2023-04-25T05:05:05.335Z,82.67
2023-04-25T05:06:07.240Z,82.63
2023-04-25T05:07:09.705Z,82.79
2023-04-25T05:08:11.318Z,82.67
2023-04-25T05:09:13.730Z,82.86
2023-04-25T05:10:15.277Z,83.37
2023-04-25T05:11:17.702Z,83.33
2023-04-25T05:12:19.177Z,83.05
2023-04-25T05:13:21.694Z,83.68
2023-04-25T05:14:24.292Z,83.93
2023-04-25T05:15:28.146Z,83.84
2023-04-25T05:16:29.683Z,83.82
2023-04-25T05:17:32.187Z,83.46
2023-04-25T05:18:33.729Z,83.62
2023-04-25T05:19:36.446Z,83.29
2023-04-25T05:20:38.041Z,83.07
2023-04-25T05:21:40.613Z,83.13
2023-04-25T05:22:42.697Z,82.64
2023-04-25T05:23:45.257Z,82.39
2023-04-25T05:24:46.854Z,81.43
2023-04-25T05:25:49.349Z,81.37
2023-04-25T05:26:50.907Z,81.24
2023-04-25T05:27:53.545Z,80.66
2023-04-25T05:28:55.237Z,80.63
2023-04-25T05:29:57.700Z,81.71
2023-04-25T05:31:01.180Z,82.43
2023-04-25T05:32:03.773Z,82.13
2023-04-25T05:33:05.530Z,82.08
2023-04-25T05:34:08.266Z,82.53
2023-04-25T05:35:10.022Z,82.05
2023-04-25T05:36:12.672Z,82.21
2023-04-25T05:37:14.194Z,82.21
2023-04-25T05:38:16.703Z,82.17
2023-04-25T05:39:18.612Z,82.38
2023-04-25T05:40:21.281Z,82.21
2023-04-25T05:41:22.791Z,81.91
2023-04-25T05:42:25.233Z,82.18
2023-04-25T05:43:26.715Z,81.76
2023-04-25T05:44:29.844Z,81.79
2023-04-25T05:45:31.476Z,81.82
2023-04-25T05:46:35.594Z,81.88
2023-04-25T05:47:37.138Z,82.04
2023-04-25T05:48:39.810Z,82.20
2023-04-25T05:49:41.367Z,81.71
2023-04-25T05:50:44.774Z,81.18
2023-04-25T05:51:46.328Z,81.14
2023-04-25T05:52:48.871Z,80.25
2023-04-25T05:53:50.802Z,80.33
2023-04-25T05:54:53.451Z,80.00
2023-04-25T05:55:55.401Z,79.76
2023-04-25T05:56:58.413Z,79.85
2023-04-25T05:57:59.904Z,80.00
2023-04-25T05:59:02.358Z,79.63
2023-04-25T06:00:05.107Z,79.27
2023-04-25T06:01:07.646Z,79.20
2023-04-25T06:02:10.559Z,79.74
2023-04-25T06:03:17.849Z,79.83
2023-04-25T06:04:21.616Z,79.26
2023-04-25T06:05:24.710Z,79.43
2023-04-25T06:06:27.835Z,80.05
2023-04-25T06:07:30.857Z,79.26
2023-04-25T06:08:32.778Z,79.92
2023-04-25T06:09:35.740Z,80.33
2023-04-25T06:10:37.567Z,80.01
2023-04-25T06:11:40.089Z,80.18
2023-04-25T06:12:41.687Z,80.11
2023-04-25T06:13:44.167Z,80.90
2023-04-25T06:14:45.806Z,80.69
2023-04-25T06:15:48.293Z,81.11
2023-04-25T06:16:49.855Z,80.49
2023-04-25T06:17:53.869Z,81.55
2023-04-25T06:18:56.342Z,82.35
2023-04-25T06:19:57.861Z,81.05
2023-04-25T06:21:00.389Z,80.63
2023-04-25T06:22:02.277Z,80.15
2023-04-25T06:23:04.700Z,81.02
2023-04-25T06:24:07.605Z,80.29
2023-04-25T06:25:09.740Z,80.42
2023-04-25T06:26:12.246Z,79.34
2023-04-25T06:27:15.785Z,79.09
2023-04-25T06:28:39.698Z,79.34
2023-04-25T06:30:02.309Z,77.74
2023-04-25T06:31:25.097Z,77.56
2023-04-25T06:32:47.728Z,77.44
2023-04-25T06:34:11.641Z,77.73
2023-04-25T06:35:33.360Z,77.39
2023-04-25T06:36:42.483Z,76.40
2023-04-25T06:37:44.108Z,77.14
2023-04-25T06:39:07.028Z,76.46
2023-04-25T06:40:29.471Z,76.37
2023-04-25T06:41:52.264Z,75.91
2023-04-25T06:42:54.005Z,75.32
2023-04-25T06:44:16.693Z,75.33
2023-04-25T06:45:38.161Z,75.22
2023-04-25T06:47:00.838Z,75.53
2023-04-25T06:48:23.496Z,74.97
2023-04-25T06:49:47.551Z,75.87
2023-04-25T06:51:10.001Z,75.67
2023-04-25T06:52:32.438Z,75.56
2023-04-25T06:53:55.477Z,75.47
2023-04-25T06:55:18.226Z,75.51
2023-04-25T06:56:40.742Z,75.14
2023-04-25T06:58:03.178Z,75.21
2023-04-25T06:59:25.699Z,75.09
2023-04-25T07:00:48.238Z,75.37
2023-04-25T07:02:10.783Z,74.58
2023-04-25T07:03:33.427Z,74.48
2023-04-25T07:05:00.714Z,74.25
2023-04-25T07:06:23.288Z,73.90
2023-04-25T07:07:45.810Z,73.94
2023-04-25T07:09:08.408Z,74.31
2023-04-25T07:10:31.164Z,75.52
2023-04-25T07:11:57.491Z,75.45
2023-04-25T07:13:19.994Z,74.62
2023-04-25T07:14:42.442Z,74.83
2023-04-25T07:16:05.990Z,74.47
2023-04-25T07:17:28.537Z,74.91
2023-04-25T07:18:51.240Z,75.85
2023-04-25T07:20:15.277Z,74.69
2023-04-25T07:21:37.797Z,74.36
2023-04-25T07:23:00.457Z,75.30
2023-04-25T07:24:23.229Z,74.88
2023-04-25T07:25:45.668Z,74.41
2023-04-25T07:27:08.153Z,75.12
2023-04-25T07:28:30.613Z,75.25
2023-04-25T07:29:53.150Z,75.69
2023-04-25T07:31:18.398Z,75.20
2023-04-25T07:32:41.171Z,75.46
2023-04-25T07:34:06.790Z,75.43
2023-04-25T07:35:30.680Z,75.04
2023-04-25T07:36:52.346Z,74.62
2023-04-25T07:38:14.885Z,74.88
2023-04-25T07:39:38.103Z,74.77
2023-04-25T07:41:00.761Z,75.57
2023-04-25T07:42:23.221Z,74.44
2023-04-25T07:43:46.502Z,74.21
2023-04-25T07:45:10.487Z,72.91
2023-04-25T07:46:33.009Z,73.08
2023-04-25T07:47:55.559Z,72.76
2023-04-25T07:49:18.042Z,73.04
2023-04-25T07:50:41.800Z,73.48
2023-04-25T07:52:05.324Z,73.15
2023-04-25T07:53:27.831Z,73.02
2023-04-25T07:54:50.352Z,73.83
2023-04-25T07:56:12.903Z,73.59
2023-04-25T07:57:35.535Z,74.47
2023-04-25T07:58:58.175Z,75.09
2023-04-25T08:00:21.068Z,74.90
2023-04-25T08:01:43.544Z,74.72
2023-04-25T08:03:07.657Z,75.13
2023-04-25T08:04:30.674Z,74.63
2023-04-25T08:05:32.726Z,74.61
2023-04-25T08:06:56.647Z,74.25
2023-04-25T08:08:19.098Z,74.29
2023-04-25T08:09:41.812Z,74.20
2023-04-25T08:11:04.322Z,74.33
2023-04-25T08:12:26.985Z,74.49
2023-04-25T08:13:49.572Z,75.16
2023-04-25T08:15:14.748Z,75.06
2023-04-25T08:16:37.280Z,74.58
2023-04-25T08:18:00.559Z,74.22
2023-04-25T08:19:23.089Z,74.10
2023-04-25T08:20:46.051Z,74.04
2023-04-25T08:22:09.894Z,74.69
2023-04-25T08:23:32.548Z,74.77
2023-04-25T08:24:55.028Z,75.07
2023-04-25T08:26:17.447Z,75.55
2023-04-25T08:27:39.909Z,76.68
2023-04-25T08:29:02.385Z,76.86
2023-04-25T08:30:25.059Z,76.63
2023-04-25T08:31:47.909Z,75.50
2023-04-25T08:33:11.269Z,74.79
2023-04-25T08:34:37.826Z,74.76
2023-04-25T08:36:00.408Z,75.32
2023-04-25T08:37:24.256Z,75.29
2023-04-25T08:38:46.718Z,74.72
2023-04-25T08:40:14.140Z,74.42
2023-04-25T08:41:38.857Z,74.58
2023-04-25T08:43:04.249Z,75.32
2023-04-25T08:44:26.899Z,75.97
2023-04-25T08:45:49.396Z,76.03
2023-04-25T08:47:11.963Z,75.81
2023-04-25T08:48:35.781Z,75.93
2023-04-25T08:49:58.311Z,76.54
2023-04-25T08:51:25.821Z,75.99
2023-04-25T08:52:53.782Z,76.18
2023-04-25T08:54:30.760Z,76.65
2023-04-25T08:56:02.755Z,76.05
2023-04-25T08:57:26.109Z,76.30
2023-04-25T08:58:50.024Z,77.24
2023-04-25T09:00:15.093Z,76.90
2023-04-25T09:01:38.062Z,77.04
2023-04-25T09:03:01.437Z,76.80
2023-04-25T09:04:24.157Z,76.67
2023-04-25T09:05:47.225Z,76.30
2023-04-25T09:07:09.737Z,75.47
2023-04-25T09:08:33.863Z,75.80
2023-04-25T09:09:56.593Z,74.93
2023-04-25T09:11:20.532Z,74.04
2023-04-25T09:12:44.453Z,74.62
2023-04-25T09:14:16.964Z,73.53
2023-04-25T09:15:50.464Z,73.53
2023-04-25T09:17:13.205Z,73.95
2023-04-25T09:18:37.238Z,73.75
2023-04-25T09:20:09.293Z,73.14
2023-04-25T09:21:32.078Z,74.08
2023-04-25T09:23:04.114Z,74.03
2023-04-25T09:24:36.660Z,73.26
2023-04-25T09:25:59.186Z,72.72
2023-04-25T09:27:24.018Z,72.18
2023-04-25T09:28:48.917Z,71.90
2023-04-25T09:30:12.744Z,73.12
2023-04-25T09:31:35.621Z,72.52
2023-04-25T09:32:58.168Z,72.44
2023-04-25T09:34:20.831Z,71.79
2023-04-25T09:35:45.028Z,72.11
2023-04-25T09:37:07.863Z,71.58
2023-04-25T09:38:32.597Z,71.07
2023-04-25T09:39:59.819Z,70.85
2023-04-25T09:41:25.572Z,70.96
2023-04-25T09:42:48.215Z,70.09
2023-04-25T09:44:14.677Z,71.62
2023-04-25T09:45:46.508Z,70.72
2023-04-25T09:47:12.187Z,70.15
2023-04-25T09:48:34.676Z,69.86
2023-04-25T09:49:57.608Z,69.39
2023-04-25T09:51:20.390Z,68.81
2023-04-25T09:52:43.291Z,69.18
2023-04-25T09:54:06.295Z,69.48
2023-04-25T09:55:30.284Z,70.76
2023-04-25T09:56:54.457Z,71.56
2023-04-25T09:58:17.377Z,70.76
2023-04-25T09:59:41.856Z,69.87
2023-04-25T10:01:07.560Z,69.93
2023-04-25T10:02:30.288Z,70.48
2023-04-25T10:03:56.674Z,69.97
2023-04-25T10:05:19.874Z,69.33
2023-04-25T10:06:44.999Z,69.72
2023-04-25T10:08:09.652Z,69.15
2023-04-25T10:09:34.993Z,70.14
2023-04-25T10:11:00.609Z,69.21
2023-04-25T10:12:23.933Z,69.80
2023-04-25T10:13:48.941Z,70.21
2023-04-25T10:15:13.785Z,69.79
2023-04-25T10:16:37.707Z,69.81
2023-04-25T10:18:00.803Z,69.92
2023-04-25T10:19:23.956Z,70.11
2023-04-25T10:20:46.738Z,69.34
2023-04-25T10:22:14.022Z,69.46
2023-04-25T10:23:37.948Z,69.46
2023-04-25T10:25:00.802Z,69.12
2023-04-25T10:26:25.577Z,69.25
2023-04-25T10:27:48.362Z,69.46
2023-04-25T10:29:11.600Z,69.11
2023-04-25T10:30:34.301Z,69.12
2023-04-25T10:31:57.741Z,69.93
2023-04-25T10:33:20.751Z,72.66
2023-04-25T10:34:47.987Z,72.43
2023-04-25T10:36:12.196Z,74.61
2023-04-25T10:37:34.942Z,75.82
2023-04-25T10:38:59.104Z,77.24
2023-04-25T10:40:24.034Z,77.57
2023-04-25T10:41:55.827Z,78.09
2023-04-25T10:43:36.881Z,77.19
2023-04-25T10:45:08.028Z,75.83
2023-04-25T10:46:31.776Z,75.54
2023-04-25T10:47:54.443Z,75.63
2023-04-25T10:49:34.299Z,74.88
2023-04-25T10:51:10.211Z,74.65
2023-04-25T10:52:35.004Z,75.01
2023-04-25T10:54:02.326Z,75.12
2023-04-25T10:55:25.192Z,73.31
2023-04-25T10:56:50.441Z,72.83
2023-04-25T10:58:14.376Z,71.25
2023-04-25T10:59:37.409Z,71.83
2023-04-25T11:01:00.031Z,70.25
2023-04-25T11:02:22.719Z,70.68
2023-04-25T11:03:46.322Z,70.22
2023-04-25T11:05:09.842Z,70.89
2023-04-25T11:06:45.871Z,70.34
2023-04-25T11:08:12.803Z,70.56
2023-04-25T11:09:36.058Z,69.96
2023-04-25T11:10:58.935Z,69.14
2023-04-25T11:12:21.775Z,68.73
2023-04-25T11:13:46.196Z,68.56
2023-04-25T11:15:09.911Z,67.66
2023-04-25T11:16:33.350Z,68.09
2023-04-25T11:17:56.991Z,67.05
2023-04-25T11:19:21.406Z,67.78
2023-04-25T11:20:45.605Z,68.36
2023-04-25T11:22:08.859Z,68.28
2023-04-25T11:23:32.221Z,67.78
2023-04-25T11:24:54.871Z,67.90
2023-04-25T11:26:17.452Z,68.91
2023-04-25T11:27:42.040Z,68.62
2023-04-25T11:29:05.900Z,69.07
2023-04-25T11:30:29.744Z,69.76
2023-04-25T11:31:52.918Z,69.17
2023-04-25T11:33:15.424Z,69.96
2023-04-25T11:34:37.944Z,70.11
2023-04-25T11:36:00.822Z,69.64
2023-04-25T11:37:23.538Z,70.02
2023-04-25T11:38:46.108Z,69.46
2023-04-25T11:40:10.595Z,68.75
2023-04-25T11:41:33.358Z,67.35
2023-04-25T11:42:56.002Z,67.90
2023-04-25T11:44:20.532Z,67.67
2023-04-25T11:45:43.325Z,66.77
2023-04-25T11:47:05.908Z,66.78
2023-04-25T11:48:28.428Z,66.74
2023-04-25T11:49:50.961Z,66.87
2023-04-25T11:51:14.582Z,66.33
2023-04-25T11:52:38.633Z,66.04
2023-04-25T11:54:01.340Z,64.80
2023-04-25T11:55:23.843Z,65.76
2023-04-25T11:56:47.488Z,66.03
2023-04-25T11:58:10.293Z,66.38
2023-04-25T11:59:34.195Z,64.56
2023-04-25T12:00:59.739Z,63.23
2023-04-25T12:02:28.657Z,65.45
2023-04-25T12:03:51.993Z,62.06
2023-04-25T12:05:31.066Z,63.14
2023-04-25T12:06:57.143Z,61.32
2023-04-25T12:08:19.777Z,60.42
2023-04-25T12:09:42.603Z,58.58
2023-04-25T12:11:06.022Z,56.77
2023-04-25T12:12:34.021Z,55.36
2023-04-25T12:13:57.170Z,52.99
2023-04-25T12:15:26.278Z,51.63
2023-04-25T12:16:50.392Z,51.86
2023-04-25T12:18:12.934Z,50.27
2023-04-25T12:19:37.667Z,51.29
2023-04-25T12:21:01.065Z,51.05
2023-04-25T12:22:25.711Z,50.76
2023-04-25T12:23:48.246Z,52.04
2023-04-25T12:25:11.659Z,51.23
2023-04-25T12:26:48.930Z,52.57
2023-04-25T12:28:13.314Z,53.15
2023-04-25T12:29:48.628Z,53.49
2023-04-25T12:31:16.112Z,53.98
2023-04-25T12:32:40.200Z,55.16
2023-04-25T12:34:03.367Z,53.64
2023-04-25T12:35:26.113Z,54.87
2023-04-25T12:36:49.043Z,55.06
2023-04-25T12:38:11.718Z,54.80
2023-04-25T12:39:35.299Z,55.79
2023-04-25T12:40:59.864Z,56.76
2023-04-25T12:42:22.514Z,56.70
2023-04-25T12:43:45.198Z,55.90
2023-04-25T12:45:08.772Z,56.65
2023-04-25T12:46:32.794Z,57.28
2023-04-25T12:47:55.320Z,57.42
2023-04-25T12:49:19.418Z,57.56
2023-04-25T12:50:43.472Z,57.87
2023-04-25T12:52:06.085Z,58.18
2023-04-25T12:53:28.665Z,58.40
2023-04-25T12:54:51.108Z,58.82
2023-04-25T12:56:14.026Z,59.51
2023-04-25T12:57:36.619Z,58.77
2023-04-25T12:58:59.158Z,58.52
2023-04-25T13:00:22.307Z,57.83
2023-04-25T13:01:46.580Z,58.16
2023-04-25T13:03:10.416Z,57.81
2023-04-25T13:04:33.268Z,56.67
2023-04-25T13:05:56.358Z,56.90
2023-04-25T13:07:19.129Z,56.57
2023-04-25T13:08:42.453Z,57.27
2023-04-25T13:10:05.524Z,57.36
2023-04-25T13:11:28.191Z,57.25
2023-04-25T13:12:51.530Z,57.54
2023-04-25T13:14:14.097Z,56.54
2023-04-25T13:15:36.653Z,55.93
2023-04-25T13:17:01.074Z,54.91
2023-04-25T13:18:27.258Z,54.75
2023-04-25T13:19:49.761Z,54.70
2023-04-25T13:21:12.878Z,56.08
2023-04-25T13:22:37.521Z,54.17
2023-04-25T13:24:00.037Z,53.74
2023-04-25T13:25:23.316Z,54.48
2023-04-25T13:26:46.126Z,52.31
2023-04-25T13:28:08.765Z,53.18
2023-04-25T13:29:31.287Z,51.90
2023-04-25T13:30:53.873Z,52.47
2023-04-25T13:32:17.849Z,53.93
2023-04-25T13:33:40.749Z,51.19
2023-04-25T13:35:07.138Z,51.89
2023-04-25T13:36:31.511Z,51.75
2023-04-25T13:37:54.237Z,51.93
2023-04-25T13:39:16.637Z,51.42
2023-04-25T13:40:39.106Z,51.45
2023-04-25T13:42:02.862Z,50.83
2023-04-25T13:43:25.344Z,50.67
2023-04-25T13:44:47.818Z,50.62
2023-04-25T13:46:24.867Z,50.90
2023-04-25T13:47:54.720Z,50.72
2023-04-25T13:49:17.450Z,49.47
2023-04-25T13:50:40.625Z,49.98
2023-04-25T13:52:03.316Z,49.03
2023-04-25T13:53:26.077Z,49.24
2023-04-25T13:54:48.988Z,48.49
2023-04-25T13:56:12.653Z,48.36
2023-04-25T13:57:35.310Z,50.33
2023-04-25T13:58:58.319Z,48.22
2023-04-25T14:00:21.321Z,48.91
2023-04-25T14:01:43.892Z,49.54
2023-04-25T14:03:08.795Z,50.30
2023-04-25T14:04:31.746Z,49.16
2023-04-25T14:05:54.304Z,50.44
2023-04-25T14:07:18.010Z,49.35
2023-04-25T14:08:41.132Z,49.13
2023-04-25T14:10:05.322Z,51.31
2023-04-25T14:11:27.906Z,53.37
2023-04-25T14:12:50.365Z,49.35
2023-04-25T14:14:13.116Z,49.31
2023-04-25T14:15:36.236Z,48.96
2023-04-25T14:16:58.715Z,48.36
2023-04-25T14:18:22.613Z,48.90
2023-04-25T14:19:46.647Z,48.53
2023-04-25T14:21:09.336Z,48.26
2023-04-25T14:22:31.801Z,48.77
2023-04-25T14:23:54.768Z,48.77
2023-04-25T14:25:17.883Z,48.63
2023-04-25T14:26:40.533Z,48.69
2023-04-25T14:28:03.325Z,49.81
2023-04-25T14:29:26.204Z,49.01
2023-04-25T14:30:48.686Z,49.82
2023-04-25T14:32:12.066Z,48.62
2023-04-25T14:33:36.342Z,49.49
2023-04-25T14:34:58.987Z,49.50
2023-04-25T14:36:22.181Z,49.91
2023-04-25T14:37:45.084Z,50.38
2023-04-25T14:39:07.899Z,49.51
2023-04-25T14:40:30.584Z,49.69
2023-04-25T14:41:53.006Z,50.91
2023-04-25T14:43:15.545Z,50.91
2023-04-25T14:44:38.045Z,50.63
2023-04-25T14:46:01.128Z,50.02
2023-04-25T14:47:23.781Z,50.77
2023-04-25T14:48:48.095Z,50.25
2023-04-25T14:50:12.217Z,50.96
2023-04-25T14:51:35.374Z,50.05
2023-04-25T14:53:00.025Z,50.97
2023-04-25T14:54:21.580Z,50.35
2023-04-25T14:55:44.139Z,50.08
2023-04-25T14:57:06.785Z,51.10
2023-04-25T14:58:28.376Z,51.36
2023-04-25T14:59:51.638Z,49.06
2023-04-25T15:01:14.960Z,50.14
2023-04-25T15:02:38.109Z,50.25
2023-04-25T15:04:02.326Z,50.41
2023-04-25T15:05:25.156Z,49.97
2023-04-25T15:06:47.923Z,50.45
2023-04-25T15:08:11.297Z,50.65
2023-04-25T15:09:33.790Z,50.12
2023-04-25T15:10:56.282Z,50.44
2023-04-25T15:12:18.846Z,51.98
2023-04-25T15:13:41.542Z,50.41
2023-04-25T15:15:04.496Z,50.51
2023-04-25T15:16:26.512Z,50.26
2023-04-25T15:17:49.234Z,51.30
2023-04-25T15:19:13.231Z,50.67
2023-04-25T15:20:36.438Z,50.26
2023-04-25T15:22:01.487Z,50.61
2023-04-25T15:23:25.317Z,50.64
2023-04-25T15:24:48.952Z,49.77
2023-04-25T15:26:11.862Z,49.07
2023-04-25T15:27:34.494Z,49.22
2023-04-25T15:28:56.958Z,48.98
2023-04-25T15:30:20.699Z,49.83
2023-04-25T15:31:43.280Z,50.18
2023-04-25T15:33:06.087Z,51.40
2023-04-25T15:34:30.121Z,52.10
2023-04-25T15:35:52.542Z,51.15
2023-04-25T15:37:15.048Z,50.28
2023-04-25T15:38:37.703Z,51.67
2023-04-25T15:40:09.707Z,50.36
2023-04-25T15:41:32.241Z,52.44
2023-04-25T15:42:55.288Z,50.91
2023-04-25T15:44:17.726Z,51.18
2023-04-25T15:45:40.248Z,51.49